sensor_id;sensor_type;location;lat;lon;timestamp;temperature;humidity
314;DHT22;143;51.634;7.112;2023-07-09T00:01:47;26.20;99.90
314;DHT22;143;51.634;7.112;2023-07-09T00:04:12;26.20;99.90
314;DHT22;143;51.634;7.112;2023-07-09T00:06:39;26.20;99.90
314;DHT22;143;51.634;7.112;2023-07-09T00:09:09;26.10;99.90
314;DHT22;143;51.634;7.112;2023-07-09T00:11:37;26.10;99.90
314;DHT22;143;51.634;7.112;2023-07-09T00:14:05;26.10;99.90
314;DHT22;143;51.634;7.112;2023-07-09T00:16:31;26.10;99.90
314;DHT22;143;51.634;7.112;2023-07-09T00:18:57;26.10;99.90
314;DHT22;143;51.634;7.112;2023-07-09T00:21:22;26.10;99.90
314;DHT22;143;51.634;7.112;2023-07-09T00:23:49;26.10;1.00
314;DHT22;143;51.634;7.112;2023-07-09T00:26:16;26.00;1.00
314;DHT22;143;51.634;7.112;2023-07-09T00:28:42;26.00;1.00
314;DHT22;143;51.634;7.112;2023-07-09T00:31:14;25.90;1.00
314;DHT22;143;51.634;7.112;2023-07-09T00:33:41;25.80;1.00
314;DHT22;143;51.634;7.112;2023-07-09T00:36:20;25.70;1.00
314;DHT22;143;51.634;7.112;2023-07-09T00:38:49;25.60;1.00
314;DHT22;143;51.634;7.112;2023-07-09T00:41:21;25.50;1.00
314;DHT22;143;51.634;7.112;2023-07-09T00:43:49;25.40;1.00
314;DHT22;143;51.634;7.112;2023-07-09T00:48:59;25.20;1.00
314;DHT22;143;51.634;7.112;2023-07-09T00:51:27;25.00;1.00
314;DHT22;143;51.634;7.112;2023-07-09T00:53:58;24.90;1.00
314;DHT22;143;51.634;7.112;2023-07-09T00:56:35;24.80;1.00
314;DHT22;143;51.634;7.112;2023-07-09T00:59:06;24.70;1.00
314;DHT22;143;51.634;7.112;2023-07-09T01:01:34;24.50;1.00
314;DHT22;143;51.634;7.112;2023-07-09T01:04:02;24.40;1.00
314;DHT22;143;51.634;7.112;2023-07-09T01:06:44;24.40;1.00
314;DHT22;143;51.634;7.112;2023-07-09T01:09:12;24.30;1.00
314;DHT22;143;51.634;7.112;2023-07-09T01:11:38;24.10;1.00
314;DHT22;143;51.634;7.112;2023-07-09T01:14:07;24.00;1.00
314;DHT22;143;51.634;7.112;2023-07-09T01:16:44;23.90;1.00
314;DHT22;143;51.634;7.112;2023-07-09T01:19:11;23.90;1.00
314;DHT22;143;51.634;7.112;2023-07-09T01:21:39;23.80;1.00
314;DHT22;143;51.634;7.112;2023-07-09T01:27:17;23.70;1.00
314;DHT22;143;51.634;7.112;2023-07-09T01:29:44;23.70;1.00
314;DHT22;143;51.634;7.112;2023-07-09T01:32:19;23.60;1.00
314;DHT22;143;51.634;7.112;2023-07-09T01:34:46;23.60;1.00
314;DHT22;143;51.634;7.112;2023-07-09T01:37:19;23.50;1.00
314;DHT22;143;51.634;7.112;2023-07-09T01:39:47;23.50;1.00
314;DHT22;143;51.634;7.112;2023-07-09T01:42:15;23.40;1.00
314;DHT22;143;51.634;7.112;2023-07-09T01:44:43;23.40;1.00
314;DHT22;143;51.634;7.112;2023-07-09T01:47:08;23.30;1.00
314;DHT22;143;51.634;7.112;2023-07-09T01:49:35;23.30;1.00
314;DHT22;143;51.634;7.112;2023-07-09T01:52:01;23.20;1.00
314;DHT22;143;51.634;7.112;2023-07-09T01:54:31;23.20;1.00
314;DHT22;143;51.634;7.112;2023-07-09T01:57:14;23.10;1.00
314;DHT22;143;51.634;7.112;2023-07-09T01:59:40;23.10;1.00
314;DHT22;143;51.634;7.112;2023-07-09T02:02:09;23.00;1.00
314;DHT22;143;51.634;7.112;2023-07-09T02:04:40;23.00;1.00
314;DHT22;143;51.634;7.112;2023-07-09T02:07:08;22.90;1.00
314;DHT22;143;51.634;7.112;2023-07-09T02:09:33;22.90;1.00
314;DHT22;143;51.634;7.112;2023-07-09T02:11:59;22.80;1.00
314;DHT22;143;51.634;7.112;2023-07-09T02:14:25;22.70;1.00
314;DHT22;143;51.634;7.112;2023-07-09T02:16:50;22.70;1.00
314;DHT22;143;51.634;7.112;2023-07-09T02:19:16;22.60;1.00
314;DHT22;143;51.634;7.112;2023-07-09T02:21:42;22.50;1.00
314;DHT22;143;51.634;7.112;2023-07-09T02:24:08;22.50;1.00
314;DHT22;143;51.634;7.112;2023-07-09T02:26:33;22.40;1.00
314;DHT22;143;51.634;7.112;2023-07-09T02:28:59;22.40;1.00
314;DHT22;143;51.634;7.112;2023-07-09T02:31:24;22.40;1.00
314;DHT22;143;51.634;7.112;2023-07-09T02:33:50;22.30;1.00
314;DHT22;143;51.634;7.112;2023-07-09T02:36:16;22.30;1.00
314;DHT22;143;51.634;7.112;2023-07-09T02:38:42;22.30;1.00
314;DHT22;143;51.634;7.112;2023-07-09T02:41:07;22.20;1.00
314;DHT22;143;51.634;7.112;2023-07-09T02:43:33;22.20;1.00
314;DHT22;143;51.634;7.112;2023-07-09T02:45:58;22.20;1.00
314;DHT22;143;51.634;7.112;2023-07-09T02:48:24;22.20;1.00
314;DHT22;143;51.634;7.112;2023-07-09T02:50:50;22.20;1.00
314;DHT22;143;51.634;7.112;2023-07-09T02:53:15;22.10;1.00
314;DHT22;143;51.634;7.112;2023-07-09T02:55:41;22.10;1.00
314;DHT22;143;51.634;7.112;2023-07-09T02:58:07;22.10;1.00
314;DHT22;143;51.634;7.112;2023-07-09T03:00:32;22.10;1.00
314;DHT22;143;51.634;7.112;2023-07-09T03:02:58;22.10;1.00
314;DHT22;143;51.634;7.112;2023-07-09T03:05:24;22.00;1.00
314;DHT22;143;51.634;7.112;2023-07-09T03:07:49;22.00;1.00
314;DHT22;143;51.634;7.112;2023-07-09T03:10:16;22.00;1.00
314;DHT22;143;51.634;7.112;2023-07-09T03:12:42;22.00;1.00
314;DHT22;143;51.634;7.112;2023-07-09T03:15:07;22.00;10.80
314;DHT22;143;51.634;7.112;2023-07-09T03:17:33;22.00;20.30
314;DHT22;143;51.634;7.112;2023-07-09T03:19:59;22.00;28.30
314;DHT22;143;51.634;7.112;2023-07-09T03:22:24;21.90;39.70
314;DHT22;143;51.634;7.112;2023-07-09T03:24:50;21.90;44.90
314;DHT22;143;51.634;7.112;2023-07-09T03:27:16;21.80;59.30
314;DHT22;143;51.634;7.112;2023-07-09T03:29:41;21.80;72.10
314;DHT22;143;51.634;7.112;2023-07-09T03:32:07;21.80;80.90
314;DHT22;143;51.634;7.112;2023-07-09T03:34:33;21.80;93.10
314;DHT22;143;51.634;7.112;2023-07-09T03:36:58;21.70;99.90
314;DHT22;143;51.634;7.112;2023-07-09T03:39:24;21.70;99.90
314;DHT22;143;51.634;7.112;2023-07-09T03:41:50;21.70;95.40
314;DHT22;143;51.634;7.112;2023-07-09T03:44:15;21.70;74.80
314;DHT22;143;51.634;7.112;2023-07-09T03:46:41;21.70;46.80
314;DHT22;143;51.634;7.112;2023-07-09T03:49:07;21.70;29.90
314;DHT22;143;51.634;7.112;2023-07-09T03:51:32;21.70;20.80
314;DHT22;143;51.634;7.112;2023-07-09T03:53:58;21.70;5.00
314;DHT22;143;51.634;7.112;2023-07-09T03:56:24;21.70;3.50
314;DHT22;143;51.634;7.112;2023-07-09T03:58:50;21.70;12.90
314;DHT22;143;51.634;7.112;2023-07-09T04:01:15;21.70;19.30
314;DHT22;143;51.634;7.112;2023-07-09T04:03:41;21.70;21.80
314;DHT22;143;51.634;7.112;2023-07-09T04:06:07;21.70;29.30
314;DHT22;143;51.634;7.112;2023-07-09T04:08:33;21.70;38.70
314;DHT22;143;51.634;7.112;2023-07-09T04:11:00;21.70;47.60
314;DHT22;143;51.634;7.112;2023-07-09T04:13:26;21.70;68.80
314;DHT22;143;51.634;7.112;2023-07-09T04:15:54;21.70;87.70
314;DHT22;143;51.634;7.112;2023-07-09T04:18:19;21.70;90.90
314;DHT22;143;51.634;7.112;2023-07-09T04:20:49;21.70;92.20
314;DHT22;143;51.634;7.112;2023-07-09T04:23:15;21.70;93.60
314;DHT22;143;51.634;7.112;2023-07-09T04:25:41;21.60;95.90
314;DHT22;143;51.634;7.112;2023-07-09T04:28:07;21.60;97.90
314;DHT22;143;51.634;7.112;2023-07-09T04:30:33;21.60;99.90
314;DHT22;143;51.634;7.112;2023-07-09T04:32:58;21.60;99.90
314;DHT22;143;51.634;7.112;2023-07-09T04:35:24;21.60;99.90
314;DHT22;143;51.634;7.112;2023-07-09T04:37:50;21.60;99.90
314;DHT22;143;51.634;7.112;2023-07-09T04:40:17;21.60;99.90
314;DHT22;143;51.634;7.112;2023-07-09T04:42:44;21.60;99.80
314;DHT22;143;51.634;7.112;2023-07-09T04:45:11;21.60;99.90
314;DHT22;143;51.634;7.112;2023-07-09T04:47:37;21.70;99.90
314;DHT22;143;51.634;7.112;2023-07-09T04:50:07;21.70;99.90
314;DHT22;143;51.634;7.112;2023-07-09T04:52:33;21.70;99.90
314;DHT22;143;51.634;7.112;2023-07-09T04:54:59;21.80;99.90
314;DHT22;143;51.634;7.112;2023-07-09T04:57:26;21.80;99.90
314;DHT22;143;51.634;7.112;2023-07-09T04:59:52;21.90;99.90
314;DHT22;143;51.634;7.112;2023-07-09T05:02:17;21.90;99.90
314;DHT22;143;51.634;7.112;2023-07-09T05:04:43;22.00;99.90
314;DHT22;143;51.634;7.112;2023-07-09T05:07:09;22.00;99.90
314;DHT22;143;51.634;7.112;2023-07-09T05:09:35;22.00;99.90
314;DHT22;143;51.634;7.112;2023-07-09T05:12:01;22.10;99.90
314;DHT22;143;51.634;7.112;2023-07-09T05:14:28;22.10;99.90
314;DHT22;143;51.634;7.112;2023-07-09T05:16:54;22.20;99.90
314;DHT22;143;51.634;7.112;2023-07-09T05:19:19;22.30;99.90
314;DHT22;143;51.634;7.112;2023-07-09T05:21:45;22.30;99.90
314;DHT22;143;51.634;7.112;2023-07-09T05:24:11;22.40;99.90
314;DHT22;143;51.634;7.112;2023-07-09T05:26:37;22.40;99.90
314;DHT22;143;51.634;7.112;2023-07-09T05:29:03;22.50;99.90
314;DHT22;143;51.634;7.112;2023-07-09T05:31:31;22.60;99.90
314;DHT22;143;51.634;7.112;2023-07-09T05:33:57;22.70;99.90
314;DHT22;143;51.634;7.112;2023-07-09T05:36:24;22.70;99.90
314;DHT22;143;51.634;7.112;2023-07-09T05:38:49;22.80;99.90
314;DHT22;143;51.634;7.112;2023-07-09T05:41:15;22.90;99.90
314;DHT22;143;51.634;7.112;2023-07-09T05:43:44;22.90;99.90
314;DHT22;143;51.634;7.112;2023-07-09T05:46:10;22.90;99.90
314;DHT22;143;51.634;7.112;2023-07-09T05:48:36;22.90;99.90
314;DHT22;143;51.634;7.112;2023-07-09T05:51:02;23.00;99.90
314;DHT22;143;51.634;7.112;2023-07-09T05:53:27;23.00;99.90
314;DHT22;143;51.634;7.112;2023-07-09T05:55:54;23.00;99.90
314;DHT22;143;51.634;7.112;2023-07-09T05:58:20;23.10;99.90
314;DHT22;143;51.634;7.112;2023-07-09T06:00:49;23.20;99.90
314;DHT22;143;51.634;7.112;2023-07-09T06:03:19;23.20;99.90
314;DHT22;143;51.634;7.112;2023-07-09T06:05:45;23.30;99.90
314;DHT22;143;51.634;7.112;2023-07-09T06:08:11;23.40;99.90
314;DHT22;143;51.634;7.112;2023-07-09T06:10:38;23.50;99.90
314;DHT22;143;51.634;7.112;2023-07-09T06:13:05;23.60;99.90
314;DHT22;143;51.634;7.112;2023-07-09T06:15:31;23.60;99.90
314;DHT22;143;51.634;7.112;2023-07-09T06:17:57;23.80;99.90
314;DHT22;143;51.634;7.112;2023-07-09T06:20:23;23.80;99.90
314;DHT22;143;51.634;7.112;2023-07-09T06:22:48;23.90;99.90
314;DHT22;143;51.634;7.112;2023-07-09T06:25:14;24.10;99.90
314;DHT22;143;51.634;7.112;2023-07-09T06:27:40;24.10;99.90
314;DHT22;143;51.634;7.112;2023-07-09T06:30:06;24.30;99.90
314;DHT22;143;51.634;7.112;2023-07-09T06:32:32;24.40;79.40
314;DHT22;143;51.634;7.112;2023-07-09T06:34:57;24.50;22.60
314;DHT22;143;51.634;7.112;2023-07-09T06:37:23;24.60;1.00
314;DHT22;143;51.634;7.112;2023-07-09T06:39:49;24.70;1.00
314;DHT22;143;51.634;7.112;2023-07-09T06:42:15;24.80;1.00
314;DHT22;143;51.634;7.112;2023-07-09T06:44:40;24.90;1.00
314;DHT22;143;51.634;7.112;2023-07-09T06:47:06;25.00;1.00
314;DHT22;143;51.634;7.112;2023-07-09T06:49:32;25.10;1.00
314;DHT22;143;51.634;7.112;2023-07-09T06:51:57;25.20;1.00
314;DHT22;143;51.634;7.112;2023-07-09T06:54:23;25.40;1.00
314;DHT22;143;51.634;7.112;2023-07-09T06:56:49;25.40;1.00
314;DHT22;143;51.634;7.112;2023-07-09T06:59:14;25.60;1.00
314;DHT22;143;51.634;7.112;2023-07-09T07:01:40;25.60;1.00
314;DHT22;143;51.634;7.112;2023-07-09T07:04:06;25.70;1.00
314;DHT22;143;51.634;7.112;2023-07-09T07:06:31;25.80;1.00
314;DHT22;143;51.634;7.112;2023-07-09T07:08:57;25.90;1.00
314;DHT22;143;51.634;7.112;2023-07-09T07:11:23;26.00;1.00
314;DHT22;143;51.634;7.112;2023-07-09T07:13:48;26.10;1.00
314;DHT22;143;51.634;7.112;2023-07-09T07:16:17;26.30;1.00
314;DHT22;143;51.634;7.112;2023-07-09T07:18:42;26.40;1.00
314;DHT22;143;51.634;7.112;2023-07-09T07:21:08;26.50;1.00
314;DHT22;143;51.634;7.112;2023-07-09T07:23:34;26.60;1.00
314;DHT22;143;51.634;7.112;2023-07-09T07:26:00;26.70;1.00
314;DHT22;143;51.634;7.112;2023-07-09T07:28:25;26.80;1.00
314;DHT22;143;51.634;7.112;2023-07-09T07:31:01;26.90;1.00
314;DHT22;143;51.634;7.112;2023-07-09T07:33:26;27.00;1.00
314;DHT22;143;51.634;7.112;2023-07-09T07:35:52;27.00;1.00
314;DHT22;143;51.634;7.112;2023-07-09T07:38:18;27.20;1.00
314;DHT22;143;51.634;7.112;2023-07-09T07:40:44;27.30;1.00
314;DHT22;143;51.634;7.112;2023-07-09T07:43:10;27.40;1.00
314;DHT22;143;51.634;7.112;2023-07-09T07:45:36;27.50;1.00
314;DHT22;143;51.634;7.112;2023-07-09T07:48:05;27.60;1.00
314;DHT22;143;51.634;7.112;2023-07-09T07:50:31;27.70;1.00
314;DHT22;143;51.634;7.112;2023-07-09T07:52:57;27.80;1.00
314;DHT22;143;51.634;7.112;2023-07-09T07:55:23;27.90;1.00
314;DHT22;143;51.634;7.112;2023-07-09T07:57:48;28.00;1.00
314;DHT22;143;51.634;7.112;2023-07-09T08:00:15;28.00;1.00
314;DHT22;143;51.634;7.112;2023-07-09T08:02:40;28.10;1.00
314;DHT22;143;51.634;7.112;2023-07-09T08:05:06;28.20;1.00
314;DHT22;143;51.634;7.112;2023-07-09T08:07:32;28.30;1.00
314;DHT22;143;51.634;7.112;2023-07-09T08:09:58;28.40;1.00
314;DHT22;143;51.634;7.112;2023-07-09T08:12:23;28.60;1.00
314;DHT22;143;51.634;7.112;2023-07-09T08:14:49;28.70;1.00
314;DHT22;143;51.634;7.112;2023-07-09T08:17:15;28.80;1.00
314;DHT22;143;51.634;7.112;2023-07-09T08:19:51;29.00;1.00
314;DHT22;143;51.634;7.112;2023-07-09T08:22:18;29.00;1.00
314;DHT22;143;51.634;7.112;2023-07-09T08:24:46;29.10;1.00
314;DHT22;143;51.634;7.112;2023-07-09T08:27:12;29.20;1.00
314;DHT22;143;51.634;7.112;2023-07-09T08:29:37;29.20;1.00
314;DHT22;143;51.634;7.112;2023-07-09T08:32:05;29.30;1.00
314;DHT22;143;51.634;7.112;2023-07-09T08:34:31;29.40;1.00
314;DHT22;143;51.634;7.112;2023-07-09T08:36:56;29.50;1.00
314;DHT22;143;51.634;7.112;2023-07-09T08:39:22;29.60;1.00
314;DHT22;143;51.634;7.112;2023-07-09T08:45:00;29.80;1.00
314;DHT22;143;51.634;7.112;2023-07-09T08:47:55;29.90;1.00
314;DHT22;143;51.634;7.112;2023-07-09T08:50:26;30.00;1.00
314;DHT22;143;51.634;7.112;2023-07-09T08:52:56;30.00;1.00
314;DHT22;143;51.634;7.112;2023-07-09T08:55:28;30.10;1.00
314;DHT22;143;51.634;7.112;2023-07-09T08:58:01;30.20;1.00
314;DHT22;143;51.634;7.112;2023-07-09T09:00:37;30.40;1.00
314;DHT22;143;51.634;7.112;2023-07-09T09:03:44;30.50;1.00
314;DHT22;143;51.634;7.112;2023-07-09T09:06:17;30.60;1.00
314;DHT22;143;51.634;7.112;2023-07-09T09:09:04;30.70;1.00
314;DHT22;143;51.634;7.112;2023-07-09T09:11:38;30.80;1.00
314;DHT22;143;51.634;7.112;2023-07-09T09:14:22;30.90;1.00
314;DHT22;143;51.634;7.112;2023-07-09T09:16:50;31.00;1.00
314;DHT22;143;51.634;7.112;2023-07-09T09:19:32;31.10;1.00
314;DHT22;143;51.634;7.112;2023-07-09T09:22:09;31.20;1.00
314;DHT22;143;51.634;7.112;2023-07-09T09:24:41;31.20;1.00
314;DHT22;143;51.634;7.112;2023-07-09T09:27:11;31.20;1.00
314;DHT22;143;51.634;7.112;2023-07-09T09:29:37;31.30;1.00
314;DHT22;143;51.634;7.112;2023-07-09T09:34:41;31.50;1.00
314;DHT22;143;51.634;7.112;2023-07-09T09:37:11;31.50;1.00
314;DHT22;143;51.634;7.112;2023-07-09T09:39:39;31.60;1.00
314;DHT22;143;51.634;7.112;2023-07-09T09:42:11;31.70;1.00
314;DHT22;143;51.634;7.112;2023-07-09T09:44:43;31.90;1.00
314;DHT22;143;51.634;7.112;2023-07-09T09:47:12;32.00;1.00
314;DHT22;143;51.634;7.112;2023-07-09T09:49:43;32.20;1.00
314;DHT22;143;51.634;7.112;2023-07-09T09:52:19;32.30;1.00
314;DHT22;143;51.634;7.112;2023-07-09T09:54:53;32.50;1.00
314;DHT22;143;51.634;7.112;2023-07-09T09:57:23;32.60;1.00
314;DHT22;143;51.634;7.112;2023-07-09T09:59:49;32.70;1.00
314;DHT22;143;51.634;7.112;2023-07-09T10:02:21;32.80;1.00
314;DHT22;143;51.634;7.112;2023-07-09T10:04:48;32.90;1.00
314;DHT22;143;51.634;7.112;2023-07-09T10:07:34;33.00;1.00
314;DHT22;143;51.634;7.112;2023-07-09T10:10:08;33.10;1.00
314;DHT22;143;51.634;7.112;2023-07-09T10:12:50;33.20;1.00
314;DHT22;143;51.634;7.112;2023-07-09T10:15:29;33.20;1.00
314;DHT22;143;51.634;7.112;2023-07-09T10:18:29;33.30;1.00
314;DHT22;143;51.634;7.112;2023-07-09T10:21:09;33.40;1.00
314;DHT22;143;51.634;7.112;2023-07-09T10:23:45;33.50;1.00
314;DHT22;143;51.634;7.112;2023-07-09T10:26:30;33.60;99.90
314;DHT22;143;51.634;7.112;2023-07-09T10:40:10;33.90;99.90
314;DHT22;143;51.634;7.112;2023-07-09T10:42:45;34.00;99.90
314;DHT22;143;51.634;7.112;2023-07-09T10:45:15;34.20;99.90
314;DHT22;143;51.634;7.112;2023-07-09T10:47:47;34.30;99.90
314;DHT22;143;51.634;7.112;2023-07-09T10:50:42;34.40;99.90
314;DHT22;143;51.634;7.112;2023-07-09T10:53:15;34.40;99.90
314;DHT22;143;51.634;7.112;2023-07-09T10:55:58;34.40;99.90
314;DHT22;143;51.634;7.112;2023-07-09T11:00:53;34.20;99.90
314;DHT22;143;51.634;7.112;2023-07-09T11:05:48;34.30;99.90
314;DHT22;143;51.634;7.112;2023-07-09T11:08:25;34.50;99.90
314;DHT22;143;51.634;7.112;2023-07-09T11:10:56;34.60;99.90
314;DHT22;143;51.634;7.112;2023-07-09T11:13:35;34.70;99.90
314;DHT22;143;51.634;7.112;2023-07-09T11:16:03;34.90;99.90
314;DHT22;143;51.634;7.112;2023-07-09T11:18:34;35.10;99.90
314;DHT22;143;51.634;7.112;2023-07-09T11:21:01;35.20;99.90
314;DHT22;143;51.634;7.112;2023-07-09T11:23:42;35.30;99.90
314;DHT22;143;51.634;7.112;2023-07-09T11:26:23;35.40;99.90
314;DHT22;143;51.634;7.112;2023-07-09T11:29:05;35.40;99.90
314;DHT22;143;51.634;7.112;2023-07-09T11:31:37;35.50;99.90
314;DHT22;143;51.634;7.112;2023-07-09T11:34:15;35.50;99.90
314;DHT22;143;51.634;7.112;2023-07-09T11:36:50;35.40;99.90
314;DHT22;143;51.634;7.112;2023-07-09T11:39:22;35.50;99.90
314;DHT22;143;51.634;7.112;2023-07-09T11:41:48;35.50;99.90
314;DHT22;143;51.634;7.112;2023-07-09T11:44:29;35.50;99.90
314;DHT22;143;51.634;7.112;2023-07-09T11:49:38;35.80;99.90
314;DHT22;143;51.634;7.112;2023-07-09T11:52:07;35.90;99.90
314;DHT22;143;51.634;7.112;2023-07-09T11:54:37;36.00;99.90
314;DHT22;143;51.634;7.112;2023-07-09T11:57:03;36.20;99.90
314;DHT22;143;51.634;7.112;2023-07-09T11:59:38;36.20;99.90
314;DHT22;143;51.634;7.112;2023-07-09T12:02:04;36.20;99.90
314;DHT22;143;51.634;7.112;2023-07-09T12:04:35;36.30;99.90
314;DHT22;143;51.634;7.112;2023-07-09T12:07:01;36.40;99.90
314;DHT22;143;51.634;7.112;2023-07-09T12:09:36;36.40;99.90
314;DHT22;143;51.634;7.112;2023-07-09T12:12:04;36.50;99.90
314;DHT22;143;51.634;7.112;2023-07-09T12:14:30;36.40;99.90
314;DHT22;143;51.634;7.112;2023-07-09T12:16:56;36.40;99.90
314;DHT22;143;51.634;7.112;2023-07-09T12:19:24;36.30;99.90
314;DHT22;143;51.634;7.112;2023-07-09T12:21:53;36.30;99.90
314;DHT22;143;51.634;7.112;2023-07-09T12:24:25;36.20;99.90
314;DHT22;143;51.634;7.112;2023-07-09T12:26:56;36.10;99.90
314;DHT22;143;51.634;7.112;2023-07-09T12:29:34;36.00;99.90
314;DHT22;143;51.634;7.112;2023-07-09T12:32:06;36.00;99.90
314;DHT22;143;51.634;7.112;2023-07-09T12:34:35;35.90;99.90
314;DHT22;143;51.634;7.112;2023-07-09T12:37:01;35.80;99.90
314;DHT22;143;51.634;7.112;2023-07-09T12:39:29;35.90;99.90
314;DHT22;143;51.634;7.112;2023-07-09T12:41:59;35.90;99.90
314;DHT22;143;51.634;7.112;2023-07-09T12:44:26;35.90;99.90
314;DHT22;143;51.634;7.112;2023-07-09T12:46:54;35.90;99.90
314;DHT22;143;51.634;7.112;2023-07-09T12:49:36;36.00;99.90
314;DHT22;143;51.634;7.112;2023-07-09T12:52:12;36.00;99.90
314;DHT22;143;51.634;7.112;2023-07-09T12:54:39;36.00;99.90
314;DHT22;143;51.634;7.112;2023-07-09T12:57:14;36.10;99.90
314;DHT22;143;51.634;7.112;2023-07-09T12:59:42;36.10;99.90
314;DHT22;143;51.634;7.112;2023-07-09T13:02:22;36.10;99.90
314;DHT22;143;51.634;7.112;2023-07-09T13:04:49;36.20;99.90
314;DHT22;143;51.634;7.112;2023-07-09T13:07:37;36.10;99.90
314;DHT22;143;51.634;7.112;2023-07-09T13:12:41;35.90;99.90
314;DHT22;143;51.634;7.112;2023-07-09T13:15:21;35.80;99.90
314;DHT22;143;51.634;7.112;2023-07-09T13:17:47;35.80;99.90
314;DHT22;143;51.634;7.112;2023-07-09T13:20:13;35.80;99.90
314;DHT22;143;51.634;7.112;2023-07-09T13:22:45;35.90;99.90
314;DHT22;143;51.634;7.112;2023-07-09T13:25:11;35.90;99.90
314;DHT22;143;51.634;7.112;2023-07-09T13:27:37;35.90;99.90
314;DHT22;143;51.634;7.112;2023-07-09T13:30:02;35.90;99.90
314;DHT22;143;51.634;7.112;2023-07-09T13:32:28;36.00;99.90
314;DHT22;143;51.634;7.112;2023-07-09T13:34:55;35.80;99.90
314;DHT22;143;51.634;7.112;2023-07-09T13:37:20;35.60;99.90
314;DHT22;143;51.634;7.112;2023-07-09T13:39:46;35.50;99.90
314;DHT22;143;51.634;7.112;2023-07-09T13:42:15;35.40;99.90
314;DHT22;143;51.634;7.112;2023-07-09T13:44:43;35.40;99.90
314;DHT22;143;51.634;7.112;2023-07-09T13:47:14;35.40;99.90
314;DHT22;143;51.634;7.112;2023-07-09T13:49:42;35.50;99.90
314;DHT22;143;51.634;7.112;2023-07-09T13:52:17;35.50;99.90
314;DHT22;143;51.634;7.112;2023-07-09T13:54:44;35.50;99.90
314;DHT22;143;51.634;7.112;2023-07-09T13:57:15;35.50;99.90
314;DHT22;143;51.634;7.112;2023-07-09T13:59:41;35.50;99.90
314;DHT22;143;51.634;7.112;2023-07-09T14:04:53;35.50;99.90
314;DHT22;143;51.634;7.112;2023-07-09T14:07:29;35.40;99.90
314;DHT22;143;51.634;7.112;2023-07-09T14:09:57;35.40;99.90
314;DHT22;143;51.634;7.112;2023-07-09T14:12:23;35.40;99.90
314;DHT22;143;51.634;7.112;2023-07-09T14:14:51;35.40;99.90
314;DHT22;143;51.634;7.112;2023-07-09T14:17:17;35.30;99.90
314;DHT22;143;51.634;7.112;2023-07-09T14:19:43;35.30;99.90
314;DHT22;143;51.634;7.112;2023-07-09T14:22:30;35.20;99.90
314;DHT22;143;51.634;7.112;2023-07-09T14:24:57;35.10;99.90
314;DHT22;143;51.634;7.112;2023-07-09T14:27:24;35.10;99.90
314;DHT22;143;51.634;7.112;2023-07-09T14:29:50;35.00;99.90
314;DHT22;143;51.634;7.112;2023-07-09T14:32:34;34.80;99.90
314;DHT22;143;51.634;7.112;2023-07-09T14:35:23;34.70;99.90
314;DHT22;143;51.634;7.112;2023-07-09T14:37:51;34.50;99.90
314;DHT22;143;51.634;7.112;2023-07-09T14:40:18;34.40;99.90
314;DHT22;143;51.634;7.112;2023-07-09T14:42:49;34.20;99.90
314;DHT22;143;51.634;7.112;2023-07-09T14:45:25;34.10;99.90
314;DHT22;143;51.634;7.112;2023-07-09T14:47:52;33.50;99.90
314;DHT22;143;51.634;7.112;2023-07-09T14:50:18;32.20;99.90
314;DHT22;143;51.634;7.112;2023-07-09T14:52:46;31.10;99.90
314;DHT22;143;51.634;7.112;2023-07-09T14:55:16;30.20;1.00
314;DHT22;143;51.634;7.112;2023-07-09T14:57:44;29.40;1.00
314;DHT22;143;51.634;7.112;2023-07-09T15:00:28;29.00;1.00
314;DHT22;143;51.634;7.112;2023-07-09T15:02:53;28.90;1.00
314;DHT22;143;51.634;7.112;2023-07-09T15:05:22;28.80;1.00
314;DHT22;143;51.634;7.112;2023-07-09T15:07:48;28.70;1.00
314;DHT22;143;51.634;7.112;2023-07-09T15:10:17;28.60;1.00
314;DHT22;143;51.634;7.112;2023-07-09T15:12:44;28.50;1.00
314;DHT22;143;51.634;7.112;2023-07-09T15:17:42;28.20;1.00
314;DHT22;143;51.634;7.112;2023-07-09T15:20:21;28.00;1.00
314;DHT22;143;51.634;7.112;2023-07-09T15:22:49;27.90;1.00
314;DHT22;143;51.634;7.112;2023-07-09T15:25:20;27.80;1.00
314;DHT22;143;51.634;7.112;2023-07-09T15:27:46;27.60;1.00
314;DHT22;143;51.634;7.112;2023-07-09T15:30:19;27.00;1.00
314;DHT22;143;51.634;7.112;2023-07-09T15:32:46;26.30;1.00
314;DHT22;143;51.634;7.112;2023-07-09T15:35:13;25.80;1.00
314;DHT22;143;51.634;7.112;2023-07-09T15:37:40;25.40;1.00
314;DHT22;143;51.634;7.112;2023-07-09T15:40:27;25.20;1.00
314;DHT22;143;51.634;7.112;2023-07-09T15:42:57;24.80;94.20
314;DHT22;143;51.634;7.112;2023-07-09T15:45:23;24.50;99.90
314;DHT22;143;51.634;7.112;2023-07-09T15:47:51;24.30;99.90
314;DHT22;143;51.634;7.112;2023-07-09T15:50:20;24.20;99.90
314;DHT22;143;51.634;7.112;2023-07-09T15:52:46;24.00;99.90
314;DHT22;143;51.634;7.112;2023-07-09T15:55:23;24.00;99.90
314;DHT22;143;51.634;7.112;2023-07-09T15:57:50;23.80;1.00
314;DHT22;143;51.634;7.112;2023-07-09T16:02:48;23.80;1.00
314;DHT22;143;51.634;7.112;2023-07-09T16:05:29;23.80;1.00
314;DHT22;143;51.634;7.112;2023-07-09T16:07:56;23.80;1.00
314;DHT22;143;51.634;7.112;2023-07-09T16:10:24;23.80;1.00
314;DHT22;143;51.634;7.112;2023-07-09T16:12:51;23.90;1.00
314;DHT22;143;51.634;7.112;2023-07-09T16:15:21;24.00;1.00
314;DHT22;143;51.634;7.112;2023-07-09T16:17:49;24.00;1.00
314;DHT22;143;51.634;7.112;2023-07-09T16:20:17;24.10;1.00
314;DHT22;143;51.634;7.112;2023-07-09T16:22:49;24.20;1.00
314;DHT22;143;51.634;7.112;2023-07-09T16:25:19;24.20;1.00
314;DHT22;143;51.634;7.112;2023-07-09T16:27:46;24.30;1.00
314;DHT22;143;51.634;7.112;2023-07-09T16:30:17;24.30;1.00
314;DHT22;143;51.634;7.112;2023-07-09T16:32:44;24.40;1.00
314;DHT22;143;51.634;7.112;2023-07-09T16:35:19;24.40;1.00
314;DHT22;143;51.634;7.112;2023-07-09T16:37:47;24.40;1.00
314;DHT22;143;51.634;7.112;2023-07-09T16:40:21;24.50;1.00
314;DHT22;143;51.634;7.112;2023-07-09T16:42:49;24.50;1.00
314;DHT22;143;51.634;7.112;2023-07-09T16:45:16;24.50;1.00
314;DHT22;143;51.634;7.112;2023-07-09T16:47:43;24.50;1.00
314;DHT22;143;51.634;7.112;2023-07-09T16:50:18;24.50;1.00
314;DHT22;143;51.634;7.112;2023-07-09T16:52:45;24.60;1.00
314;DHT22;143;51.634;7.112;2023-07-09T16:55:16;24.60;1.00
314;DHT22;143;51.634;7.112;2023-07-09T16:57:44;24.60;1.00
314;DHT22;143;51.634;7.112;2023-07-09T17:02:38;24.70;1.00
314;DHT22;143;51.634;7.112;2023-07-09T17:05:05;24.60;1.00
314;DHT22;143;51.634;7.112;2023-07-09T17:07:33;24.70;1.00
314;DHT22;143;51.634;7.112;2023-07-09T17:09:59;24.70;1.00
314;DHT22;143;51.634;7.112;2023-07-09T17:12:26;24.80;1.00
314;DHT22;143;51.634;7.112;2023-07-09T17:14:53;24.80;1.00
314;DHT22;143;51.634;7.112;2023-07-09T17:17:24;24.80;1.00
314;DHT22;143;51.634;7.112;2023-07-09T17:19:50;24.90;1.00
314;DHT22;143;51.634;7.112;2023-07-09T17:24:47;24.90;1.00
314;DHT22;143;51.634;7.112;2023-07-09T17:27:13;25.00;1.00
314;DHT22;143;51.634;7.112;2023-07-09T17:29:40;24.90;1.00
314;DHT22;143;51.634;7.112;2023-07-09T17:32:06;25.00;1.00
314;DHT22;143;51.634;7.112;2023-07-09T17:34:32;25.00;1.00
314;DHT22;143;51.634;7.112;2023-07-09T17:36:58;25.00;1.00
314;DHT22;143;51.634;7.112;2023-07-09T17:39:24;25.00;1.00
314;DHT22;143;51.634;7.112;2023-07-09T17:41:51;24.90;1.00